Temp: 18.6°C   Baro: 1017.7mb
  Wind: 0.0mph   Dir: W (274°)
  Rain: 0.2mm (0.0mm/hr)
  Solar: 0W/m2  Hum: 84%
 
Bath Spa Weather Station Historical Data
 
Daily Summary for August 06, 2020 Units:  Metric    English   Both
Daily Weekly Monthly Yearly Custom
  Current: High: Low: Average:
Temperature: 18.7 °C 23.5 °C 17.4 °C 19.8 °C
Dew Point: 15.9 °C 18.9 °C 15.6 °C 17.1 °C
Humidity: 84% 92% 71% 85%
Wind Speed: 0km/h 14.5km/h 0km/h 4.2km/h
Wind Gust: 0km/h 24.1km/h - -
WindCalm - - SSW
Pressure: 1017.5 hPa 1017.5 hPa 1013.1 hPa -
Precipitation: 0.25 mm      
Historical Graphs
 
 
Tabular Data for August 06, 2020
Time Temperature Dew Point Pressure Wind Wind Speed Wind Gust Humidity Rainfall Rate (Hourly) solar
00:04 17.7 °C 15.9 °C 1013.1 hPa West 1.3 km/h 4.8 km/h 89% 0 mm 0 W/m2
00:09 17.7 °C 15.9 °C 1013.1 hPa West 1.3 km/h 4.8 km/h 89% 0 mm 0 W/m2
00:14 17.7 °C 15.9 °C 1013.4 hPa West 2.1 km/h 4.8 km/h 89% 0 mm 0 W/m2
00:19 17.7 °C 15.9 °C 1013.4 hPa West 3.4 km/h 6.4 km/h 89% 0 mm 0 W/m2
00:24 17.7 °C 15.9 °C 1013.4 hPa West 0.3 km/h 4.8 km/h 89% 0 mm 0 W/m2
00:29 17.7 °C 15.9 °C 1013.4 hPa West 0.3 km/h 1.6 km/h 89% 0 mm 0 W/m2
00:34 17.7 °C 15.9 °C 1013.4 hPa West 0.3 km/h 3.2 km/h 89% 0 mm 0 W/m2
00:39 17.7 °C 15.9 °C 1013.4 hPa West 1.9 km/h 4.8 km/h 89% 0 mm 0 W/m2
00:44 17.8 °C 16 °C 1013.4 hPa West 1.3 km/h 4.8 km/h 89% 0 mm 0 W/m2
00:49 17.8 °C 16 °C 1013.4 hPa West 1 km/h 4.8 km/h 89% 0 mm 0 W/m2
00:54 17.8 °C 16 °C 1013.4 hPa Calm     89% 0 mm 0 W/m2
00:59 17.8 °C 16 °C 1013.4 hPa Calm     89% 0 mm 0 W/m2
01:04 17.8 °C 16 °C 1013.4 hPa Calm     89% 0 mm 0 W/m2
01:09 17.8 °C 16 °C 1013.4 hPa West 0.6 km/h 4.8 km/h 89% 0 mm 0 W/m2
01:14 17.8 °C 16 °C 1013.4 hPa Calm   4.8 km/h 89% 0 mm 0 W/m2
01:19 17.8 °C 16 °C 1013.4 hPa Calm   1.6 km/h 89.2% 0 mm 0 W/m2
01:24 17.8 °C 16.1 °C 1013.4 hPa Calm     89% 0 mm 0 W/m2
01:28 17.8 °C 16 °C 1013.4 hPa West 1.4 km/h 4.8 km/h 89% 0 mm 0 W/m2
01:34 17.8 °C 16.1 °C 1013.8 hPa West 2.6 km/h 6.4 km/h 89% 0 mm 0 W/m2
01:39 17.8 °C 16.1 °C 1013.8 hPa West 1.6 km/h 4.8 km/h 89.6% 0 mm 0 W/m2
01:44 17.9 °C 16.2 °C 1013.8 hPa West 3.4 km/h 6.4 km/h 89.8% 0 mm 0 W/m2
01:49 17.8 °C 16.2 °C 1013.8 hPa West 1 km/h 6.4 km/h 89.8% 0 mm 0 W/m2
01:54 17.9 °C 16.2 °C 1013.4 hPa West 0.3 km/h 3.2 km/h 89.8% 0 mm 0 W/m2
01:59 17.8 °C 16.1 °C 1013.4 hPa West 0.8 km/h 6.4 km/h 89.6% 0 mm 0 W/m2
02:04 17.8 °C 16 °C 1013.4 hPa West 1.9 km/h 4.8 km/h 89% 0 mm 0 W/m2
02:09 17.8 °C 16 °C 1013.4 hPa West 1.6 km/h 6.4 km/h 89% 0 mm 0 W/m2
02:14 17.8 °C 16 °C 1013.8 hPa West 2.6 km/h 6.4 km/h 89% 0 mm 0 W/m2
02:19 17.8 °C 16 °C 1013.8 hPa West 5.3 km/h 8 km/h 89% 0 mm 0 W/m2
02:24 17.8 °C 16 °C 1013.8 hPa West 4.3 km/h 8 km/h 89% 0 mm 0 W/m2
02:29 17.8 °C 16 °C 1013.8 hPa West 3.9 km/h 6.4 km/h 89% 0 mm 0 W/m2
02:34 17.8 °C 16 °C 1013.8 hPa West 2.7 km/h 6.4 km/h 89% 0 mm 0 W/m2
02:39 17.8 °C 16 °C 1013.8 hPa West 1.3 km/h 3.2 km/h 89% 0 mm 0 W/m2
02:44 17.8 °C 16 °C 1013.8 hPa West 3.5 km/h 8 km/h 89% 0 mm 0 W/m2
02:49 17.8 °C 16 °C 1013.8 hPa West 2.1 km/h 4.8 km/h 89% 0 mm 0 W/m2
02:54 17.8 °C 16 °C 1013.8 hPa West 1.8 km/h 4.8 km/h 89% 0 mm 0 W/m2
02:59 17.8 °C 16.1 °C 1013.8 hPa West 0.3 km/h 4.8 km/h 89.8% 0 mm 0 W/m2
03:04 17.8 °C 16.1 °C 1013.8 hPa West 3.9 km/h 8 km/h 89.8% 0 mm 0 W/m2
03:09 17.8 °C 16.1 °C 1013.8 hPa West 3.4 km/h 8 km/h 89.8% 0 mm 0 W/m2
03:14 17.8 °C 16.1 °C 1014.1 hPa West 2.6 km/h 6.4 km/h 89.8% 0 mm 0 W/m2
03:19 17.8 °C 16.1 °C 1013.8 hPa West 1.3 km/h 4.8 km/h 90% 0 mm 0 W/m2
03:24 17.8 °C 16.1 °C 1013.8 hPa West 2.7 km/h 6.4 km/h 90% 0 mm 0 W/m2
03:29 17.8 °C 16.1 °C 1013.8 hPa West 2.6 km/h 6.4 km/h 90% 0 mm 0 W/m2
03:34 17.8 °C 16.1 °C 1014.1 hPa West 0.3 km/h 4.8 km/h 90% 0 mm 0 W/m2
03:39 17.8 °C 16.1 °C 1014.1 hPa Calm   3.2 km/h 90% 0 mm 0 W/m2
03:44 17.7 °C 16 °C 1014.1 hPa West 1.9 km/h 6.4 km/h 90% 0 mm 0 W/m2
03:49 17.7 °C 16 °C 1014.1 hPa West 2.7 km/h 6.4 km/h 90% 0 mm 0 W/m2
03:54 17.7 °C 16 °C 1014.1 hPa SW 5.3 km/h 9.7 km/h 90% 0 mm 0 W/m2
03:59 17.7 °C 16 °C 1014.1 hPa SW 2.7 km/h 8 km/h 90% 0 mm 0 W/m2
04:04 17.7 °C 16 °C 1014.1 hPa SW 2.1 km/h 6.4 km/h 90% 0 mm 0 W/m2
04:09 17.7 °C 16 °C 1014.1 hPa SW 3.7 km/h 9.7 km/h 90% 0 mm 0 W/m2
04:14 17.7 °C 15.9 °C 1014.1 hPa SW 0.6 km/h 6.4 km/h 89.8% 0 mm 0 W/m2
04:19 17.7 °C 15.9 °C 1014.1 hPa SW 1.3 km/h 4.8 km/h 90% 0 mm 0 W/m2
04:24 17.6 °C 15.9 °C 1014.1 hPa SW 2.6 km/h 4.8 km/h 89.8% 0 mm 0 W/m2
04:29 17.6 °C 15.8 °C 1014.1 hPa SW 1.6 km/h 4.8 km/h 89.5% 0 mm 0 W/m2
04:34 17.6 °C 15.8 °C 1014.1 hPa SW 0.8 km/h 4.8 km/h 89% 0 mm 0 W/m2
04:39 17.6 °C 15.8 °C 1014.1 hPa SW 0.6 km/h 4.8 km/h 89% 0 mm 0 W/m2
04:44 17.6 °C 15.8 °C 1014.1 hPa SW 1 km/h 4.8 km/h 89% 0 mm 0 W/m2
04:49 17.6 °C 15.8 °C 1014.1 hPa SW 2.3 km/h 4.8 km/h 89% 0 mm 0 W/m2
04:54 17.6 °C 15.7 °C 1014.1 hPa Calm   3.2 km/h 89% 0 mm 0 W/m2
04:59 17.6 °C 15.7 °C 1014.1 hPa Calm     89% 0 mm 0 W/m2
05:04 17.5 °C 15.7 °C 1014.4 hPa SW 1 km/h 3.2 km/h 89% 0 mm 0 W/m2
05:09 17.5 °C 15.7 °C 1014.4 hPa Calm     89% 0 mm 0 W/m2
05:14 17.5 °C 15.7 °C 1014.4 hPa SW 1.6 km/h 4.8 km/h 89% 0 mm 0 W/m2
05:19 17.4 °C 15.7 °C 1014.4 hPa SW 0.3 km/h 4.8 km/h 89% 0 mm 0 W/m2
05:24 17.4 °C 15.6 °C 1014.4 hPa Calm     89% 0 mm 0 W/m2
05:29 17.4 °C 15.6 °C 1014.4 hPa Calm     89% 0 mm 0 W/m2
05:34 17.4 °C 15.6 °C 1014.4 hPa Calm   4.8 km/h 89% 0 mm 0 W/m2
05:39 17.4 °C 15.6 °C 1014.4 hPa SW 0.3 km/h 3.2 km/h 89% 0 mm 0 W/m2
05:44 17.4 °C 15.6 °C 1014.4 hPa Calm   1.6 km/h 89% 0 mm 0 W/m2
05:49 17.4 °C 15.6 °C 1014.4 hPa SW 0.3 km/h 6.4 km/h 89% 0 mm 0 W/m2
05:54 17.4 °C 15.6 °C 1014.4 hPa SW 2.7 km/h 8 km/h 89% 0 mm 0 W/m2
05:59 17.4 °C 15.6 °C 1014.4 hPa SW 1.4 km/h 8 km/h 89% 0 mm 5 W/m2
06:04 17.4 °C 15.6 °C 1014.8 hPa SW 2.1 km/h 8 km/h 89% 0 mm 5 W/m2
06:09 17.4 °C 15.6 °C 1014.8 hPa SSW 2.6 km/h 6.4 km/h 89% 0 mm 12 W/m2
06:14 17.4 °C 15.6 °C 1014.8 hPa SSW 0.8 km/h 3.2 km/h 89% 0 mm 12 W/m2
06:19 17.4 °C 15.6 °C 1014.8 hPa Calm   3.2 km/h 89% 0 mm 14 W/m2
06:24 17.4 °C 15.6 °C 1014.8 hPa SSW 0.6 km/h 4.8 km/h 89% 0 mm 16 W/m2
06:28 17.4 °C 15.6 °C 1014.8 hPa SSW 0.3 km/h 4.8 km/h 89% 0 mm 18 W/m2
06:34 17.4 °C 15.6 °C 1014.8 hPa SSW 0.3 km/h 3.2 km/h 89% 0 mm 19 W/m2
06:39 17.4 °C 15.6 °C 1014.8 hPa SSW 1 km/h 3.2 km/h 89% 0 mm 21 W/m2
06:44 17.4 °C 15.6 °C 1014.8 hPa South 0.6 km/h 4.8 km/h 89% 0 mm 21 W/m2
06:49 17.4 °C 15.6 °C 1014.8 hPa South 1.6 km/h 4.8 km/h 89% 0 mm 21 W/m2
06:54 17.4 °C 15.6 °C 1014.8 hPa SSW 3.5 km/h 6.4 km/h 89% 0 mm 26 W/m2
06:59 17.4 °C 15.6 °C 1014.8 hPa SSW 2.9 km/h 8 km/h 89% 0 mm 32 W/m2
07:04 17.4 °C 15.6 °C 1015.1 hPa Calm   6.4 km/h 89% 0 mm 32 W/m2
07:09 17.4 °C 15.6 °C 1015.1 hPa SSW 1.3 km/h 6.4 km/h 89% 0 mm 32 W/m2
07:14 17.4 °C 15.6 °C 1015.1 hPa SSW 1.9 km/h 6.4 km/h 89% 0 mm 44 W/m2
07:19 17.4 °C 15.6 °C 1015.1 hPa SSW 1 km/h 4.8 km/h 89% 0 mm 40 W/m2
07:24 17.4 °C 15.7 °C 1015.1 hPa SSW 1.6 km/h 4.8 km/h 89.4% 0 mm 35 W/m2
07:29 17.4 °C 15.6 °C 1015.1 hPa South 3.5 km/h 8 km/h 89% 0 mm 40 W/m2
07:34 17.4 °C 15.7 °C 1015.1 hPa South 1.3 km/h 8 km/h 89.6% 0 mm 56 W/m2
07:39 17.4 °C 15.7 °C 1015.1 hPa South 1.3 km/h 4.8 km/h 90% 0 mm 53 W/m2
07:44 17.4 °C 15.7 °C 1015.1 hPa South 1 km/h 4.8 km/h 90% 0 mm 47 W/m2
07:49 17.4 °C 15.7 °C 1015.5 hPa Calm   3.2 km/h 90% 0 mm 46 W/m2
07:54 17.4 °C 15.7 °C 1015.5 hPa South 1 km/h 4.8 km/h 90% 0 mm 62 W/m2
07:59 17.4 °C 15.7 °C 1015.5 hPa South 0.6 km/h 3.2 km/h 90% 0 mm 65 W/m2
08:04 17.4 °C 15.8 °C 1015.5 hPa Calm   3.2 km/h 90.2% 0 mm 54 W/m2
08:09 17.6 °C 16.1 °C 1015.5 hPa Calm     91% 0 mm 62 W/m2
08:14 17.5 °C 16 °C 1015.5 hPa Calm     91% 0 mm 69 W/m2
08:19 17.6 °C 16.1 °C 1015.5 hPa Calm   1.6 km/h 91% 0 mm 69 W/m2
08:24 17.7 °C 16.2 °C 1015.5 hPa Calm     91% 0 mm 72 W/m2
08:29 17.7 °C 16.2 °C 1015.8 hPa Calm     91% 0 mm 83 W/m2
08:34 17.8 °C 16.3 °C 1015.8 hPa Calm     91% 0 mm 93 W/m2
08:39 17.8 °C 16.3 °C 1015.8 hPa Calm     91% 0 mm 137 W/m2
08:43 17.9 °C 16.4 °C 1015.8 hPa South 1.6 km/h 4.8 km/h 91% 0 mm 109 W/m2
08:49 17.9 °C 16.4 °C 1015.8 hPa South 0.3 km/h 3.2 km/h 91% 0 mm 102 W/m2
08:54 17.9 °C 16.4 °C 1015.8 hPa Calm   1.6 km/h 91% 0 mm 139 W/m2
08:59 17.9 °C 16.4 °C 1015.8 hPa South 1 km/h 3.2 km/h 91% 0 mm 118 W/m2
09:04 18.1 °C 16.7 °C 1015.8 hPa South 0.3 km/h 1.6 km/h 91.6% 0 mm 90 W/m2
09:09 17.9 °C 16.4 °C 1015.8 hPa South 0.8 km/h 4.8 km/h 91% 0 mm 90 W/m2
09:14 18 °C 16.5 °C 1015.8 hPa SSE 2.1 km/h 11.3 km/h 91% 0 mm 76 W/m2
09:19 18 °C 16.5 °C 1015.8 hPa South 4.8 km/h 11.3 km/h 91% 0 mm 77 W/m2
09:24 18.1 °C 16.8 °C 1016.1 hPa South 1.6 km/h 6.4 km/h 92% 0 mm 69 W/m2
09:29 18.2 °C 16.8 °C 1016.1 hPa SSE 4 km/h 6.4 km/h 92% 0 mm 69 W/m2
09:34 18.2 °C 16.8 °C 1016.1 hPa SSE 3.5 km/h 9.7 km/h 91.8% 0 mm 86 W/m2
09:39 18.3 °C 16.8 °C 1016.1 hPa SSE 5.8 km/h 9.7 km/h 91% 0 mm 107 W/m2
09:44 18.3 °C 16.8 °C 1015.8 hPa SSE 5.1 km/h 9.7 km/h 91% 0 mm 142 W/m2
09:49 18.3 °C 16.8 °C 1015.8 hPa SSE 5 km/h 8 km/h 91% 0 mm 127 W/m2
09:54 18.4 °C 16.9 °C 1016.1 hPa SE 2.9 km/h 9.7 km/h 91% 0 mm 114 W/m2
09:59 18.5 °C 17 °C 1016.1 hPa SSE 4.7 km/h 8 km/h 91% 0 mm 109 W/m2
10:04 18.6 °C 17.1 °C 1016.1 hPa South 4.5 km/h 11.3 km/h 91% 0 mm 105 W/m2
10:08 18.7 °C 17.2 °C 1016.1 hPa South 2.4 km/h 11.3 km/h 91% 0 mm 105 W/m2
10:14 18.8 °C 17.2 °C 1016.1 hPa South 5 km/h 9.7 km/h 90.6% 0 mm 121 W/m2
10:19 18.9 °C 17.2 °C 1016.1 hPa South 4.5 km/h 11.3 km/h 90% 0 mm 118 W/m2
10:24 19.1 °C 17.4 °C 1016.1 hPa South 2.1 km/h 6.4 km/h 90% 0 mm 127 W/m2
10:29 19.1 °C 17.4 °C 1016.1 hPa SSW 6.3 km/h 11.3 km/h 90% 0 mm 125 W/m2
10:34 19.2 °C 17.5 °C 1016.1 hPa SW 4.3 km/h 11.3 km/h 90% 0 mm 104 W/m2
10:39 19.2 °C 17.6 °C 1016.1 hPa South 4.5 km/h 11.3 km/h 90% 0 mm 137 W/m2
10:44 19.3 °C 17.6 °C 1016.1 hPa SSE 6.4 km/h 12.9 km/h 90% 0 mm 176 W/m2
10:49 19.2 °C 17.5 °C 1016.1 hPa South 5.3 km/h 12.9 km/h 90% 0 mm 265 W/m2
10:54 19.3 °C 17.6 °C 1016.1 hPa SSE 3.9 km/h 8 km/h 90.4% 0 mm 279 W/m2
10:58 19.3 °C 17.8 °C 1016.1 hPa SSE 5.1 km/h 8 km/h 91% 0 mm 244 W/m2
11:04 19.4 °C 17.9 °C 1016.1 hPa South 3.2 km/h 12.9 km/h 91% 0 mm 295 W/m2
11:09 19.6 °C 18.1 °C 1016.1 hPa SSE 10 km/h 19.3 km/h 91% 0 mm 570 W/m2
11:14 19.7 °C 18.2 °C 1016.1 hPa SSE 8.5 km/h 16.1 km/h 91% 0 mm 570 W/m2
11:19 19.8 °C 18.2 °C 1016.1 hPa South 7.2 km/h 19.3 km/h 90.4% 0 mm 380 W/m2
11:24 19.9 °C 18.3 °C 1016.1 hPa South 9.3 km/h 19.3 km/h 90% 0 mm 338 W/m2
11:29 20.2 °C 18.3 °C 1016.1 hPa SSE 4.8 km/h 14.5 km/h 89.2% 0 mm 313 W/m2
11:34 20.2 °C 18.2 °C 1016.1 hPa SSE 13.2 km/h 19.3 km/h 88.4% 0.25 mm 237 W/m2
11:39 20.1 °C 18 °C 1016.1 hPa SSE 8.5 km/h 17.7 km/h 88% 0.25 mm 250 W/m2
11:44 20.2 °C 18.1 °C 1016.1 hPa South 6.6 km/h 12.9 km/h 88% 0.25 mm 281 W/m2
11:49 20.2 °C 18.2 °C 1016.1 hPa South 8.4 km/h 12.9 km/h 88.5% 0.25 mm 271 W/m2
11:54 20.2 °C 18.3 °C 1016.1 hPa SSE 7.6 km/h 14.5 km/h 89% 0.25 mm 287 W/m2
11:59 20.1 °C 18.2 °C 1016.1 hPa South 8.4 km/h 14.5 km/h 89% 0.25 mm 248 W/m2
12:04 20.1 °C 18.2 °C 1016.1 hPa South 10 km/h 20.9 km/h 89% 0.25 mm 367 W/m2
12:09 20.1 °C 18.2 °C 1016.1 hPa South 9 km/h 20.9 km/h 89.2% 0.25 mm 853 W/m2
12:14 20.3 °C 18.5 °C 1016.1 hPa South 7.9 km/h 14.5 km/h 89.6% 0.25 mm 946 W/m2
12:19 20.7 °C 18.9 °C 1016.1 hPa South 6 km/h 12.9 km/h 90% 0.25 mm 889 W/m2
12:24 20.8 °C 18.8 °C 1016.5 hPa South 10.5 km/h 19.3 km/h 89% 0.25 mm 613 W/m2
12:29 20.7 °C 18.7 °C 1016.5 hPa South 7.9 km/h 20.9 km/h 88.4% 0.25 mm 686 W/m2
12:34 20.9 °C 18.8 °C 1016.5 hPa South 12.1 km/h 19.3 km/h 87.8% 0.25 mm 686 W/m2
12:39 21 °C 18.8 °C 1016.5 hPa South 6.6 km/h 19.3 km/h 87.2% 0 mm 622 W/m2
12:44 20.8 °C 18.7 °C 1016.5 hPa South 10.3 km/h 17.7 km/h 87.3% 0 mm 406 W/m2
12:49 20.7 °C 18.6 °C 1016.5 hPa South 6.4 km/h 17.7 km/h 87.8% 0 mm 429 W/m2
12:54 20.8 °C 18.7 °C 1016.5 hPa South 7.9 km/h 16.1 km/h 87.8% 0 mm 504 W/m2
12:59 20.9 °C 18.7 °C 1016.5 hPa SSW 8.5 km/h 16.1 km/h 87% 0 mm 330 W/m2
13:04 20.8 °C 18.6 °C 1016.5 hPa SSW 10.6 km/h 16.1 km/h 87% 0 mm 374 W/m2
13:09 20.9 °C 18.7 °C 1016.5 hPa South 6.6 km/h 17.7 km/h 86.8% 0 mm 387 W/m2
13:14 21.1 °C 18.7 °C 1016.5 hPa South 6.8 km/h 17.7 km/h 86% 0 mm 378 W/m2
13:19 21.2 °C 18.8 °C 1016.5 hPa South 7.6 km/h 17.7 km/h 86% 0 mm 371 W/m2
13:24 21.2 °C 18.7 °C 1016.5 hPa South 8.4 km/h 17.7 km/h 85.2% 0 mm 272 W/m2
13:29 21.3 °C 18.7 °C 1016.5 hPa South 6.6 km/h 17.7 km/h 85% 0 mm 272 W/m2
13:34 21.4 °C 18.8 °C 1016.5 hPa South 9.5 km/h 20.9 km/h 85% 0 mm 322 W/m2
13:39 21.3 °C 18.5 °C 1016.5 hPa South 9.2 km/h 22.5 km/h 84.2% 0 mm 232 W/m2
13:44 21.3 °C 18.6 °C 1016.5 hPa South 7.2 km/h 22.5 km/h 84.8% 0 mm 197 W/m2
13:49 21.3 °C 18.8 °C 1016.5 hPa SSW 4 km/h 14.5 km/h 85% 0 mm 237 W/m2
13:54 21.4 °C 18.6 °C 1016.5 hPa SSW 9.2 km/h 17.7 km/h 84% 0 mm 304 W/m2
13:59 21.3 °C 18.5 °C 1016.5 hPa SSW 5.6 km/h 11.3 km/h 84% 0 mm 262 W/m2
14:04 21.3 °C 18.5 °C 1016.5 hPa South 9.3 km/h 16.1 km/h 84% 0 mm 287 W/m2
14:09 21.3 °C 18.7 °C 1016.5 hPa South 8.4 km/h 16.1 km/h 85% 0 mm 626 W/m2
14:14 21.5 °C 18.8 °C 1016.8 hPa WSW 11.3 km/h 14.5 km/h 84.6% 0 mm 568 W/m2
14:19 21.7 °C 18.9 °C 1016.5 hPa SSW 5.6 km/h 16.1 km/h 84% 0 mm 295 W/m2
14:24 21.5 °C 18.7 °C 1016.5 hPa South 11.9 km/h 17.7 km/h 83.8% 0 mm 392 W/m2
14:29 21.3 °C 18.6 °C 1016.5 hPa South 10.8 km/h 16.1 km/h 84% 0 mm 371 W/m2
14:34 21.5 °C 18.7 °C 1016.5 hPa South 7.7 km/h 16.1 km/h 84% 0 mm 272 W/m2
14:38 21.6 °C 18.8 °C 1016.5 hPa South 10 km/h 16.1 km/h 84% 0 mm 262 W/m2
14:44 21.6 °C 18.7 °C 1016.5 hPa South 8.5 km/h 16.1 km/h 84% 0 mm 232 W/m2
14:49 21.6 °C 18.7 °C 1016.5 hPa South 9 km/h 19.3 km/h 83.8% 0 mm 274 W/m2
14:54 21.7 °C 18.8 °C 1016.8 hPa SSW 6.1 km/h 19.3 km/h 84% 0 mm 478 W/m2
14:59 21.8 °C 18.8 °C 1016.8 hPa SSW 7.7 km/h 19.3 km/h 83% 0 mm 429 W/m2
15:04 21.7 °C 18.5 °C 1016.8 hPa SSW 9 km/h 17.7 km/h 82% 0 mm 403 W/m2
15:09 21.9 °C 18.9 °C 1016.8 hPa SSW 6 km/h 17.7 km/h 82.8% 0 mm 476 W/m2
15:14 22.3 °C 18.9 °C 1016.8 hPa SSW 11.7 km/h 20.9 km/h 81.4% 0 mm 283 W/m2
15:18 21.8 °C 18.5 °C 1016.8 hPa South 10.1 km/h 16.1 km/h 81.3% 0 mm 232 W/m2
15:24 21.8 °C 18.7 °C 1016.8 hPa SSE 7.2 km/h 19.3 km/h 82% 0 mm 357 W/m2
15:29 21.8 °C 18.7 °C 1016.8 hPa SSE 8.5 km/h 19.3 km/h 82% 0 mm 374 W/m2
15:34 21.9 °C 18.7 °C 1016.8 hPa South 7.6 km/h 14.5 km/h 82% 0 mm 272 W/m2
15:39 21.9 °C 18.7 °C 1016.8 hPa South 8.5 km/h 19.3 km/h 82% 0 mm 329 W/m2
15:44 22.2 °C 18.8 °C 1016.8 hPa South 7.7 km/h 19.3 km/h 81.4% 0 mm 438 W/m2
15:49 22.3 °C 18.8 °C 1016.8 hPa SE 7.9 km/h 14.5 km/h 80.4% 0 mm 329 W/m2
15:54 22.3 °C 18.8 °C 1016.8 hPa South 8.5 km/h 16.1 km/h 80% 0 mm 323 W/m2
15:59 22.4 °C 18.6 °C 1016.8 hPa South 6.9 km/h 17.7 km/h 79% 0 mm 517 W/m2
16:04 22.5 °C 18.6 °C 1016.8 hPa South 8.7 km/h 24.1 km/h 78.2% 0 mm 406 W/m2
16:09 22.7 °C 18.4 °C 1016.8 hPa South 14.5 km/h 22.5 km/h 76.6% 0 mm 343 W/m2
16:14 22.7 °C 18.3 °C 1016.8 hPa South 7.2 km/h 16.1 km/h 76.5% 0 mm 290 W/m2
16:19 22.8 °C 18.6 °C 1016.5 hPa SSW 7.7 km/h 16.1 km/h 77% 0 mm 323 W/m2
16:24 23 °C 18.5 °C 1016.8 hPa SSW 7.7 km/h 16.1 km/h 76% 0 mm 311 W/m2
16:29 23.1 °C 18.4 °C 1016.8 hPa South 11.6 km/h 19.3 km/h 75.2% 0 mm 367 W/m2
16:34 23.2 °C 18.4 °C 1016.5 hPa SSW 9.3 km/h 22.5 km/h 74.6% 0 mm 392 W/m2
16:39 23.2 °C 18.3 °C 1016.5 hPa South 7.2 km/h 20.9 km/h 74% 0 mm 396 W/m2
16:43 23.2 °C 18.2 °C 1016.8 hPa South 10 km/h 24.1 km/h 74% 0 mm 325 W/m2
16:49 23.1 °C 18.2 °C 1016.8 hPa SSW 8.5 km/h 19.3 km/h 74% 0 mm 297 W/m2
16:54 23.2 °C 18.3 °C 1016.5 hPa SW 8.5 km/h 16.1 km/h 74.4% 0 mm 334 W/m2
16:59 23.1 °C 18.2 °C 1016.5 hPa SSW 9.5 km/h 17.7 km/h 74% 0 mm 279 W/m2
17:04 23.1 °C 18.2 °C 1016.5 hPa SSW 7.9 km/h 16.1 km/h 74% 0 mm 258 W/m2
17:09 23.1 °C 18.2 °C 1016.5 hPa SSW 8 km/h 14.5 km/h 74% 0 mm 223 W/m2
17:14 23.1 °C 18.2 °C 1016.5 hPa South 10 km/h 17.7 km/h 74% 0 mm 213 W/m2
17:19 23.1 °C 18.2 °C 1016.5 hPa SW 6.3 km/h 17.7 km/h 74% 0 mm 195 W/m2
17:24 23.2 °C 18.2 °C 1016.5 hPa South 7.7 km/h 16.1 km/h 74% 0 mm 206 W/m2
17:29 23.2 °C 18.3 °C 1016.5 hPa SSW 5.5 km/h 14.5 km/h 74% 0 mm 302 W/m2
17:34 23.4 °C 18.3 °C 1016.1 hPa SSW 4.8 km/h 14.5 km/h 73% 0 mm 287 W/m2
17:39 23.4 °C 18.2 °C 1016.1 hPa SSW 6.9 km/h 14.5 km/h 72.6% 0 mm 221 W/m2
17:44 23.4 °C 18.2 °C 1016.5 hPa SSW 7.6 km/h 16.1 km/h 72.8% 0 mm 186 W/m2
17:49 23.2 °C 18.2 °C 1016.5 hPa SSW 6 km/h 16.1 km/h 73% 0 mm 223 W/m2
17:54 23.2 °C 18.1 °C 1016.5 hPa SSW 7.6 km/h 14.5 km/h 72.8% 0 mm 234 W/m2
17:59 23.2 °C 18.1 °C 1016.5 hPa South 9.8 km/h 20.9 km/h 73% 0 mm 221 W/m2
18:04 23.1 °C 18 °C 1016.5 hPa South 9.2 km/h 16.1 km/h 73.2% 0 mm 206 W/m2
18:09 23.1 °C 18.1 °C 1016.5 hPa SSW 5.1 km/h 16.1 km/h 73.6% 0 mm 200 W/m2
18:14 23.2 °C 18.1 °C 1016.5 hPa South 9.2 km/h 20.9 km/h 73.3% 0 mm 345 W/m2
18:19 23.1 °C 18.1 °C 1016.5 hPa SSW 7.1 km/h 20.9 km/h 73.2% 0 mm 359 W/m2
18:24 23.2 °C 18.2 °C 1016.1 hPa South 5.6 km/h 12.9 km/h 73.2% 0 mm 490 W/m2
18:29 23.3 °C 18.2 °C 1016.1 hPa South 10.5 km/h 17.7 km/h 72.6% 0 mm 401 W/m2
18:34 23.5 °C 18.4 °C 1016.1 hPa SSW 2.9 km/h 9.7 km/h 73% 0 mm 315 W/m2
18:39 23.5 °C 18 °C 1016.5 hPa WSW 9.5 km/h 14.5 km/h 71.4% 0 mm 141 W/m2
18:44 23.3 °C 17.8 °C 1016.5 hPa SW 7.1 km/h 11.3 km/h 71.6% 0 mm 156 W/m2
18:49 23.2 °C 17.9 °C 1016.5 hPa SSW 5.8 km/h 14.5 km/h 72% 0 mm 213 W/m2
18:54 23.2 °C 18.1 °C 1016.5 hPa SW 6 km/h 11.3 km/h 72.8% 0 mm 264 W/m2
18:59 23.2 °C 18.1 °C 1016.5 hPa SSW 4.3 km/h 11.3 km/h 73% 0 mm 163 W/m2
19:04 23.2 °C 18 °C 1016.5 hPa South 10 km/h 19.3 km/h 72.8% 0 mm 287 W/m2
19:09 23.2 °C 17.9 °C 1016.5 hPa SSW 3.7 km/h 12.9 km/h 72% 0 mm 239 W/m2
19:14 23.2 °C 17.7 °C 1016.5 hPa South 5 km/h 14.5 km/h 71.4% 0 mm 213 W/m2
19:19 23.2 °C 17.6 °C 1016.8 hPa SSW 9 km/h 16.1 km/h 71% 0 mm 192 W/m2
19:24 22.8 °C 17.4 °C 1016.8 hPa WSW 6 km/h 16.1 km/h 71.4% 0 mm 44 W/m2
19:29 22.7 °C 17.4 °C 1016.8 hPa SW 5.1 km/h 11.3 km/h 72% 0 mm 42 W/m2
19:34 22.6 °C 17.4 °C 1016.8 hPa West 5.1 km/h 14.5 km/h 72.8% 0 mm 49 W/m2
19:39 22.6 °C 17.5 °C 1016.8 hPa WSW 3.5 km/h 14.5 km/h 73% 0 mm 98 W/m2
19:44 22.7 °C 17.5 °C 1016.8 hPa West 4.7 km/h 11.3 km/h 72.6% 0 mm 100 W/m2
19:49 22.8 °C 17.5 °C 1016.8 hPa SW 2.7 km/h 8 km/h 72% 0 mm 91 W/m2
19:54 22.7 °C 17.5 °C 1016.8 hPa SW 5.3 km/h 12.9 km/h 72.4% 0 mm 93 W/m2
19:59 22.7 °C 17.6 °C 1016.8 hPa SW 2.4 km/h 6.4 km/h 73% 0 mm 40 W/m2
20:04 22.6 °C 17.5 °C 1016.8 hPa WSW 5.1 km/h 8 km/h 73% 0 mm 42 W/m2
20:09 22.4 °C 17.3 °C 1016.8 hPa West 6.4 km/h 11.3 km/h 73.2% 0 mm 32 W/m2
20:14 22.2 °C 17.3 °C 1016.8 hPa West 3.7 km/h 9.7 km/h 74% 0 mm 21 W/m2
20:19 21.9 °C 17.2 °C 1016.8 hPa West 6.6 km/h 11.3 km/h 74.6% 0 mm 16 W/m2
20:24 21.8 °C 17.2 °C 1016.8 hPa West 5.8 km/h 9.7 km/h 75% 0 mm 14 W/m2
20:29 21.6 °C 17.1 °C 1016.8 hPa West 7.4 km/h 9.7 km/h 75.2% 0 mm 12 W/m2
20:34 21.4 °C 17 °C 1016.8 hPa West 5.8 km/h 9.7 km/h 76% 0 mm 11 W/m2
20:39 21.3 °C 16.9 °C 1016.8 hPa West 7.1 km/h 11.3 km/h 76% 0 mm 9 W/m2
20:44 21.2 °C 16.9 °C 1016.8 hPa West 6.6 km/h 11.3 km/h 76.8% 0 mm 5 W/m2
20:48 21.1 °C 16.9 °C 1016.8 hPa West 5.1 km/h 9.7 km/h 77% 0 mm 0 W/m2
20:54 20.9 °C 16.8 °C 1016.8 hPa West 3.9 km/h 9.7 km/h 77% 0 mm 0 W/m2
20:59 20.8 °C 16.8 °C 1017.2 hPa West 3.9 km/h 6.4 km/h 77.6% 0 mm 0 W/m2
21:04 20.7 °C 16.7 °C 1016.8 hPa West 3.2 km/h 6.4 km/h 78% 0 mm 0 W/m2
21:09 20.6 °C 16.7 °C 1017.2 hPa West 2.9 km/h 6.4 km/h 78.2% 0 mm 0 W/m2
21:14 20.6 °C 16.7 °C 1017.2 hPa West 0.6 km/h 3.2 km/h 79% 0 mm 0 W/m2
21:19 20.4 °C 16.6 °C 1017.2 hPa West 1.4 km/h 4.8 km/h 79% 0 mm 0 W/m2
21:24 20.3 °C 16.6 °C 1017.2 hPa West 0.8 km/h 4.8 km/h 79.2% 0 mm 0 W/m2
21:29 20.2 °C 16.6 °C 1017.2 hPa West 0.3 km/h 3.2 km/h 80% 0 mm 0 W/m2
21:34 20.1 °C 16.5 °C 1017.2 hPa Calm     80% 0 mm 0 W/m2
21:39 20 °C 16.6 °C 1017.2 hPa Calm     80.8% 0 mm 0 W/m2
21:44 19.8 °C 16.4 °C 1017.2 hPa West 2.6 km/h 4.8 km/h 81% 0 mm 0 W/m2
21:49 19.8 °C 16.5 °C 1017.2 hPa Calm   4.8 km/h 81.6% 0 mm 0 W/m2
21:54 19.7 °C 16.5 °C 1017.2 hPa Calm     82% 0 mm 0 W/m2
21:59 19.7 °C 16.4 °C 1017.5 hPa Calm     82% 0 mm 0 W/m2
22:04 19.4 °C 16.3 °C 1017.5 hPa Calm     82.2% 0 mm 0 W/m2
22:09 19.3 °C 16.3 °C 1017.5 hPa Calm     83% 0 mm 0 W/m2
22:14 19.2 °C 16.2 °C 1017.5 hPa Calm     83% 0 mm 0 W/m2
22:19 19.2 °C 16.2 °C 1017.5 hPa Calm     83% 0 mm 0 W/m2
22:24 19.1 °C 16.2 °C 1017.5 hPa Calm     83.2% 0 mm 0 W/m2
22:29 19.1 °C 16.3 °C 1017.5 hPa Calm     84% 0 mm 0 W/m2
22:34 18.9 °C 16.1 °C 1017.5 hPa Calm     84% 0 mm 0 W/m2
22:39 18.8 °C 16 °C 1017.5 hPa Calm     84% 0 mm 0 W/m2
22:44 18.7 °C 15.9 °C 1017.5 hPa Calm     84% 0 mm 0 W/m2
Bath Spa Weather
Compliments of Weather Underground - 2 mb